CX4 weather

Public forecast

Using degrees Celsius for public forecast. Weather courtesy of forecast.io.

Closest aviation weather report (METAR) to Bay d'Espoir Airport

Closest report is St Pierre Airport, 72.9 nm (135.1 km) S. Retrieved 2020/08/09 09:00 UTC (9 minutes ago):

LFVP 090900Z VRB01KT 0350 R26/0375N FG VV/// 16/16 Q1016

Closest aviation forecast (TAF) to Bay d'Espoir Airport

Closest forecast is St Pierre Airport, 72.9 nm (135.1 km) S. Retrieved 2020/08/09 09:00 UTC (9 minutes ago):

TAF LFVP 090800Z 0909/0918 VRB03KT 0600 FG OVC002 BECMG 0909/0911 6000 NSW BKN003 BECMG 0911/0913 22010KT CAVOK